Latest Weather Observations for Cape Leeuwin

IDW60801

Issued at 8:33 am WST Tuesday 21 February 2017 (issued every 30 minutes, with the page automatically refreshed every 10 minutes)

About weather observations | Map of weather stations | Latest weather observations for WA | Other Formats
Station Details ID: 009518 Name: CAPE LEEUWIN Lat: -34.37 Lon: 115.14 Height: 13.0 m
Data from the previous 72 hours. | See also: Recent months at Cape Leeuwin
Date/Time
WST
Temp
°C
App
Temp
°C
Dew
Point
°C
Rel
Hum
%
Delta-T
°C
Wind Press
QNH
hPa
Press
MSL
hPa
Rain since
9am
mm
Dir  Spd
km/h
Gust
km/h
Spd
kts
Gust
kts
21/08:30am 17.3 8.0 9.2 59 4.2 WSW 48 63 26 34 1013.1 1013.0 2.6
21/08:00am 16.7 7.1 7.8 55 4.5 WSW 48 57 26 31 1012.8 1012.7 2.6
21/07:30am 16.6 7.3 9.1 61 3.9 WSW 48 59 26 32 1012.3 1012.2 2.6
21/07:00am 16.3 6.3 7.7 56 4.3 SW 50 61 27 33 1011.8 1011.7 2.6
21/06:30am 16.4 7.0 8.6 60 4.0 WSW 48 61 26 33 1011.4 1011.3 2.6
21/06:00am 15.8 7.0 9.4 65 3.3 WSW 46 59 25 32 1010.9 1010.8 2.6
21/05:30am 16.4 7.4 9.0 61 3.8 WSW 46 57 25 31 1010.5 1010.4 2.2
21/05:00am 16.7 6.3 9.2 61 3.9 WSW 54 69 29 37 1010.1 1010.0 2.2
21/04:30am 16.8 7.9 9.1 60 4.0 WSW 46 59 25 32 1009.7 1009.6 2.2
21/04:00am 16.6 6.2 9.1 61 3.9 SW 54 65 29 35 1009.5 1009.4 2.2
21/03:37am 16.7 8.9 9.6 63 3.7 WSW 41 61 22 33 1009.4 1009.3 2.2
21/03:30am 16.4 9.2 11.8 74 2.5 WSW 41 52 22 28 1009.4 1009.3 2.2
21/03:00am 16.1 6.4 11.9 76 2.3 SW 54 63 29 34 1009.2 1009.1 2.2
21/02:30am 16.7 8.6 12.2 75 2.5 WSW 46 56 25 30 1009.1 1009.0 2.2
21/02:00am 15.6 7.2 13.5 87 1.2 WSW 50 59 27 32 1009.5 1009.4 2.2
21/01:30am 15.9 9.6 14.7 93 0.7 WSW 41 48 22 26 1009.3 1009.2 1.8
21/01:00am 16.4 8.4 14.7 90 1.0 W 50 67 27 36 1009.4 1009.3 0.4
21/12:57am 16.8 9.0 14.2 85 1.5 WNW 48 61 26 33 1009.5 1009.4 0.2
21/12:30am 17.5 10.7 14.4 82 1.8 WNW 43 48 23 26 1009.7 1009.6 0.2
21/12:00am 16.5 11.0 13.7 83 1.6 WNW 35 41 19 22 1010.2 1010.1 0.2
 
Date/Time
WST
Temp
°C
App
Temp
°C
Dew
Point
°C
Rel
Hum
%
Delta-T
°C
Wind Press
QNH
hPa
Press
MSL
hPa
Rain since
9am
mm
Dir  Spd
km/h
Gust
km/h
Spd
kts
Gust
kts
20/11:30pm 18.7 12.1 11.2 61 4.1 WNW 37 44 20 24 1010.2 1010.1 0.0
20/11:00pm 18.6 11.8 10.8 60 4.2 WNW 37 43 20 23 1010.6 1010.5 0.0
20/10:30pm 18.4 11.8 11.5 64 3.8 WNW 37 44 20 24 1011.1 1011.0 0.0
20/10:00pm 18.3 11.5 11.8 66 3.6 W 39 46 21 25 1011.1 1011.0 0.0
20/09:30pm 18.2 11.9 11.0 63 3.9 W 35 43 19 23 1011.6 1011.5 0.0
20/09:00pm 18.0 12.5 12.0 68 3.3 W 32 41 17 22 1011.6 1011.5 0.0
20/08:30pm 17.9 12.6 10.0 60 4.2 W 28 33 15 18 1011.6 1011.5 0.0
20/08:00pm 18.2 11.5 9.5 57 4.6 W 35 46 19 25 1011.9 1011.8 0.0
20/07:30pm 17.8 11.8 10.9 64 3.7 W 33 39 18 21 1011.9 1011.8 0.0
20/07:00pm 18.1 11.4 11.1 63 3.8 WSW 37 43 20 23 1012.2 1012.1 0.0
20/06:30pm 18.2 11.8 10.8 62 4.0 WSW 35 43 19 23 1011.9 1011.8 0.0
20/06:00pm 18.5 12.9 11.4 63 3.9 WSW 32 37 17 20 1011.3 1011.2 0.0
20/05:30pm 18.9 13.3 11.6 62 4.0 WSW 32 39 17 21 1011.6 1011.5 0.0
20/05:00pm 18.4 13.5 11.2 63 3.9 WSW 28 33 15 18 1011.6 1011.5 0.0
20/04:30pm 19.1 15.1 11.7 62 4.1 WSW 24 32 13 17 1011.7 1011.6 0.0
20/04:00pm 19.4 17.1 11.6 60 4.3 WSW 15 22 8 12 1011.9 1011.8 0.0
20/03:30pm 19.0 15.7 11.7 62 4.0 WSW 20 32 11 17 1012.3 1012.2 0.0
20/03:00pm 18.4 15.1 12.7 69 3.2 SW 22 28 12 15 1012.5 1012.4 0.0
20/02:30pm 18.7 15.1 13.0 69 3.2 SW 24 30 13 16 1012.6 1012.5 0.0
20/02:00pm 19.4 18.2 14.0 71 3.1 SSW 13 19 7 10 1012.8 1012.7 0.0
20/01:30pm 18.0 15.9 15.3 84 1.6 SW 20 26 11 14 1013.0 1012.9 0.0
20/01:00pm 18.9 15.8 14.4 75 2.6 SW 24 32 13 17 1013.2 1013.1 0.0
20/12:30pm 19.2 16.5 14.6 74 2.7 SSW 22 26 12 14 1013.3 1013.2 0.0
20/12:00pm 18.6 16.4 15.9 84 1.6 SSW 22 30 12 16 1013.6 1013.5 0.0
20/11:30am 18.7 17.7 16.5 87 1.3 S 17 24 9 13 1013.8 1013.7 0.0
20/11:00am 19.5 17.6 15.3 76 2.5 S 19 24 10 13 1014.2 1014.1 0.0
20/10:30am 18.5 16.3 16.0 85 1.5 S 22 30 12 16 1014.3 1014.2 0.0
20/10:00am 20.0 18.0 15.6 76 2.6 SSE 20 26 11 14 1014.5 1014.4 0.0
20/09:30am 19.9 18.3 15.0 73 2.9 S 17 22 9 12 1014.5 1014.4 0.0
20/09:00am 20.9 19.6 13.8 64 4.1 SW 13 17 7 9 1014.5 1014.4 0.0
20/08:30am 19.5 16.9 13.3 67 3.5 SSW 19 22 10 12 1014.6 1014.5 0.0
20/08:00am 19.3 16.6 13.5 69 3.3 SSW 20 26 11 14 1014.5 1014.4 0.0
20/07:30am 19.4 17.0 13.8 70 3.2 SSW 19 24 10 13 1014.6 1014.5 0.0
20/07:00am 18.8 17.3 14.3 75 2.6 S 15 20 8 11 1014.4 1014.3 0.0
20/06:30am 18.5 16.1 13.8 74 2.7 S 19 24 10 13 1014.3 1014.2 0.0
20/06:00am 18.5 15.4 13.4 72 2.9 S 22 30 12 16 1014.1 1014.0 0.0
20/05:30am 18.3 14.4 13.4 73 2.8 S 26 32 14 17 1013.9 1013.8 0.0
20/05:00am 18.3 14.4 14.5 78 2.2 S 28 33 15 18 1013.9 1013.8 0.0
20/04:30am 18.6 15.4 14.3 76 2.5 S 24 33 13 18 1013.8 1013.7 0.0
20/04:00am 18.6 15.4 14.3 76 2.5 S 24 32 13 17 1013.9 1013.8 0.0
20/03:30am 18.6 15.3 14.1 75 2.6 S 24 30 13 16 1013.9 1013.8 0.0
20/03:00am 18.5 15.3 14.3 76 2.4 S 24 30 13 16 1013.9 1013.8 0.0
20/02:30am 18.5 15.1 14.7 78 2.2 S 26 32 14 17 1014.2 1014.1 0.0
20/02:00am 18.5 15.3 14.3 76 2.4 S 24 30 13 16 1014.3 1014.2 0.0
20/01:30am 18.3 15.9 14.5 78 2.2 S 20 28 11 15 1014.3 1014.2 0.0
20/01:00am 18.2 15.7 14.0 76 2.4 S 20 28 11 15 1014.1 1014.0 0.0
20/12:30am 18.2 15.8 14.4 78 2.2 S 20 26 11 14 1014.0 1013.9 0.0
20/12:00am 18.4 15.7 14.6 78 2.2 S 22 28 12 15 1014.2 1014.1 0.0
 
Date/Time
WST
Temp
°C
App
Temp
°C
Dew
Point
°C
Rel
Hum
%
Delta-T
°C
Wind Press
QNH
hPa
Press
MSL
hPa
Rain since
9am
mm
Dir  Spd
km/h
Gust
km/h
Spd
kts
Gust
kts
19/11:30pm 18.4 15.0 14.8 79 2.1 SSW 26 32 14 17 1014.4 1014.3 0.0
19/11:00pm 18.8 15.6 15.2 79 2.1 SSW 26 33 14 18 1014.8 1014.7 0.0
19/10:30pm 18.8 15.6 15.2 79 2.1 SSW 26 32 14 17 1015.0 1014.9 0.0
19/10:00pm 19.2 15.9 16.0 82 1.9 SW 28 32 15 17 1015.0 1014.9 0.0
19/09:30pm 19.5 16.4 16.5 83 1.8 SW 28 35 15 19 1015.2 1015.1 0.0
19/09:00pm 19.4 18.1 16.7 84 1.6 SW 19 24 10 13 1014.5 1014.4 0.0
19/08:30pm 19.8 18.1 17.2 85 1.6 SW 22 30 12 16 1014.3 1014.2 0.0
19/08:00pm 20.2 19.5 18.3 89 1.2 SW 19 26 10 14 1014.1 1014.0 0.0
19/07:30pm 20.1 20.4 18.0 88 1.3 SW 13 17 7 9 1013.5 1013.4 0.0
19/07:00pm 20.6 21.0 18.2 86 1.5 SW 13 19 7 10 1013.3 1013.2 0.0
19/06:30pm 21.2 20.9 18.3 83 1.8 SW 17 20 9 11 1013.2 1013.1 0.0
19/06:00pm 21.9 21.2 18.7 82 2.0 SW 20 24 11 13 1013.3 1013.2 0.0
19/05:30pm 22.5 22.6 19.2 81 2.1 SW 17 20 9 11 1013.2 1013.1 0.0
19/05:00pm 22.2 23.2 19.4 84 1.8 SW 13 17 7 9 1013.5 1013.4 0.0
19/04:30pm 22.9 23.8 19.3 80 2.3 WSW 13 15 7 8 1013.2 1013.1 0.0
19/04:00pm 23.4 24.4 19.5 79 2.5 WSW 13 17 7 9 1013.4 1013.3 0.0
19/03:30pm 24.2 23.9 18.3 69 3.7 WSW 17 19 9 10 1013.1 1013.0 0.0
19/03:00pm 23.9 24.5 17.8 68 3.8 W 11 15 6 8 1013.2 1013.1 0.0
19/02:30pm 23.6 24.1 17.5 68 3.8 WNW 11 13 6 7 1013.1 1013.0 0.0
19/02:00pm 24.0 23.5 17.8 68 3.9 WNW 17 20 9 11 1013.4 1013.3 0.0
19/01:30pm 24.2 23.3 17.8 67 4.0 WNW 19 20 10 11 1013.7 1013.6 0.0
19/01:00pm 24.6 23.8 17.0 62 4.7 WNW 17 19 9 10 1014.0 1013.9 0.0
19/12:30pm 23.5 23.5 17.2 67 3.9 WNW 13 15 7 8 1014.0 1013.9 0.0
19/12:00pm 23.5 22.9 17.5 69 3.7 WNW 17 20 9 11 1014.3 1014.2 0.0
19/11:30am 24.0 23.4 15.7 59 5.0 WNW 13 17 7 9 1014.3 1014.2 0.0
19/11:00am 23.0 22.8 16.8 68 3.8 NW 13 13 7 7 1014.4 1014.3 0.0
19/10:30am 23.5 23.5 17.2 67 3.9 WSW 13 15 7 8 1014.5 1014.4 0.0
19/10:00am 23.6 23.3 16.4 64 4.4 SW 13 20 7 11 1014.6 1014.5 0.0
19/09:30am 26.8 24.9 14.2 46 7.5 SW 17 22 9 12 1014.7 1014.6 0.0
19/09:00am 28.5 24.9 10.5 32 10.2 N 20 28 11 15 1014.5 1014.4 0.0
19/08:30am 25.5 21.4 11.6 41 7.9 NNE 24 37 13 20 1014.6 1014.5 0.0
19/08:00am 23.8 18.1 11.1 44 7.1 NNE 32 44 17 24 1014.7 1014.6 0.0
19/07:30am 22.6 15.5 10.8 47 6.5 NNE 39 48 21 26 1014.7 1014.6 0.0
19/07:00am 21.9 14.4 10.8 49 6.1 NNE 41 52 22 28 1014.7 1014.6 0.0
19/06:30am 21.5 13.6 10.7 50 5.9 NNE 43 54 23 29 1014.6 1014.5 0.0
19/06:00am 21.3 13.4 10.9 51 5.7 NNE 43 56 23 30 1014.4 1014.3 0.0
19/05:30am 21.2 13.3 10.8 51 5.7 NNE 43 52 23 28 1014.4 1014.3 0.0
19/05:00am 21.6 14.4 10.4 49 6.1 NE 39 50 21 27 1014.7 1014.6 0.0
19/04:30am 21.4 14.6 10.8 50 5.8 NE 37 48 20 26 1014.9 1014.8 0.0
19/04:00am 21.7 14.9 10.8 50 6.0 NE 37 46 20 25 1015.0 1014.9 0.0
19/03:30am 21.7 15.2 10.5 49 6.1 NE 35 50 19 27 1015.1 1015.0 0.0
19/03:00am 21.8 15.5 9.7 46 6.5 NE 33 44 18 24 1015.1 1015.0 0.0
19/02:30am 21.9 15.7 9.4 45 6.7 NE 32 44 17 24 1015.4 1015.3 0.0
19/02:00am 22.1 15.6 9.0 43 7.0 NE 33 39 18 21 1015.4 1015.3 0.0
19/01:30am 21.8 15.0 9.3 45 6.7 NE 35 39 19 21 1015.8 1015.7 0.0
19/01:00am 20.8 16.1 13.3 62 4.3 ENE 30 32 16 17 1016.0 1015.9 0.0
19/12:30am 19.8 17.4 16.5 81 2.0 E 24 26 13 14 1016.5 1016.4 0.0
19/12:00am 19.7 18.8 18.1 90 1.0 E 20 24 11 13 1016.7 1016.6 0.0
 
Date/Time
WST
Temp
°C
App
Temp
°C
Dew
Point
°C
Rel
Hum
%
Delta-T
°C
Wind Press
QNH
hPa
Press
MSL
hPa
Rain since
9am
mm
Dir  Spd
km/h
Gust
km/h
Spd
kts
Gust
kts
18/11:30pm 19.9 18.3 18.3 90 1.0 E 24 26 13 14 1016.7 1016.6 0.0
18/11:00pm 19.9 19.4 17.8 88 1.3 E 17 22 9 12 1016.8 1016.7 0.0
18/10:30pm 20.0 18.9 18.6 92 0.9 E 22 26 12 14 1016.8 1016.7 0.0
18/10:00pm 20.0 18.7 18.2 89 1.1 E 22 26 12 14 1017.1 1017.0 0.0
18/09:30pm 20.0 18.7 18.2 89 1.1 E 22 26 12 14 1017.4 1017.3 0.0
18/09:00pm 20.1 19.1 18.0 88 1.3 E 20 24 11 13 1017.7 1017.6 0.0
18/08:30pm 20.1 18.1 17.5 85 1.6 ENE 24 30 13 16 1017.8 1017.7 0.0
18/08:00pm 20.0 18.8 17.5 85 1.5 ENE 20 28 11 15 1018.0 1017.9 0.0
18/07:30pm 20.1 18.5 17.5 85 1.6 ESE 22 26 12 14 1018.4 1018.3 0.0
18/07:00pm 20.2 19.0 17.4 84 1.7 E 20 26 11 14 1018.3 1018.2 0.0
18/06:30pm 20.8 18.8 17.4 81 2.1 ESE 24 30 13 16 1018.3 1018.2 0.0
18/06:00pm 20.8 18.7 17.2 80 2.2 ESE 24 33 13 18 1018.4 1018.3 0.0
18/05:30pm 20.9 18.4 17.1 79 2.3 SE 26 35 14 19 1018.3 1018.2 0.0
18/05:00pm 21.0 18.0 16.9 77 2.5 SE 28 35 15 19 1018.2 1018.1 0.0
18/04:30pm 21.6 19.0 16.8 74 2.9 SE 26 33 14 18 1018.3 1018.2 0.0
18/04:00pm 22.2 19.7 17.0 72 3.2 SE 26 33 14 18 1018.4 1018.3 0.0
18/03:30pm 22.8 20.9 16.6 68 3.8 SE 22 30 12 16 1018.5 1018.4 0.0
18/03:00pm 23.0 21.4 16.6 67 3.9 SE 20 30 11 16 1018.6 1018.5 0.0
18/02:30pm 23.3 20.4 16.0 63 4.4 SE 26 35 14 19 1018.8 1018.7 0.0
18/02:00pm 23.0 19.3 15.9 64 4.3 SE 30 39 16 21 1019.2 1019.1 0.0
18/01:30pm 23.2 19.6 15.3 61 4.7 SE 28 37 15 20 1019.6 1019.5 0.0
18/01:00pm 23.2 19.1 14.9 59 4.9 SE 30 39 16 21 1019.8 1019.7 0.0
18/12:30pm 23.6 19.9 14.0 55 5.6 SE 26 33 14 18 1020.1 1020.0 0.0
18/12:00pm 22.0 17.9 13.9 60 4.7 SE 28 35 15 19 1020.2 1020.1 0.0
18/11:30am 21.4 17.4 14.0 62 4.3 SE 28 35 15 19 1020.6 1020.5 0.0
18/11:00am 20.7 15.8 12.7 60 4.5 ESE 30 37 16 20 1020.8 1020.7 0.0
18/10:30am 21.1 15.8 13.0 60 4.6 ESE 33 39 18 21 1021.1 1021.1 0.0
18/10:00am 20.6 15.3 13.0 61 4.3 E 33 39 18 21 1021.2 1021.2 0.0
18/09:30am 19.1 13.5 12.0 63 3.9 E 33 39 18 21 1021.5 1021.5 0.0
18/09:00am 18.2 12.6 12.2 68 3.3 E 33 37 18 20 1021.9 1021.9 0.0

Other Formats:

Comma delimited format used in spreadsheet applications
http://www.bom.gov.au/fwo/IDW60801/IDW60801.94601.axf

JavaScript Object Notation format (JSON) in row-major order
http://www.bom.gov.au/fwo/IDW60801/IDW60801.94601.json